Azeri Gas — 9HA2373 — position and weather

sailwx.info

Track history (hours):
 
Tides and Currents Weather Stations Pressure Air Temp Water Temp Dewpoint Dewpoint Depression Visibility Wind Speed Wind Dir Waves Ship Positions

Azeri Gas

Last reported at 2017-Nov-24 16:50 UTC. Time now 2017-Dec-11 04:17 UTC.
Position S 33°49' E 018°19'.
Warning: this ship's position is 16 days out of date.

Length 119 m; draft 5.6 m.

Type: Tanker. MMSI: 248454000.

Date/timePositionNaut miles runAvg speedWind from/ knotsBaromVisibWave heightAir tempDewpointWater temp
2017-Nov-24 16:50S 33°49' E 018°19'412.1
2017-Nov-24 16:30S 33°51' E 018°23'4 7.7
2017-Nov-24 16:00S 33°54' E 018°26'1 0.3
2017-Nov-24 14:16S 33°55' E 018°26'0 0.0
2017-Nov-24 02:28S 33°55' E 018°26'0 0.0
2017-Nov-24 01:58S 33°55' E 018°26'0 0.0
2017-Nov-23 14:49S 33°55' E 018°26'1 1.7
2017-Nov-23 14:30S 33°54' E 018°26'2 3.8
2017-Nov-23 14:01S 33°52' E 018°25'0 0.9
2017-Nov-23 13:30S 33°53' E 018°25'1 2.7
2017-Nov-23 13:00S 33°52' E 018°23'3 5.2
2017-Nov-23 12:30S 33°52' E 018°20'4 8.6
2017-Nov-23 12:00S 33°52' E 018°15'  
2017-Nov-20 00:30S 29°46' E 032°26'1014.6
2017-Nov-19 23:49S 29°39' E 032°34'514.3
2017-Nov-19 23:27S 29°36' E 032°38'914.3
2017-Nov-19 22:49S 29°29' E 032°46'414.0
2017-Nov-19 22:30S 29°26' E 032°49'713.9
2017-Nov-19 22:00S 29°22' E 032°55'713.8
2017-Nov-19 21:30S 29°17' E 033°01'713.5
2017-Nov-19 20:57S 29°12' E 033°07'613.3
2017-Nov-19 20:30S 29°07' E 033°12'713.1
2017-Nov-19 20:00S 29°03' E 033°17'1813.1
2017-Nov-19 18:37S 28°50' E 033°32'113.2
2017-Nov-19 18:30S 28°49' E 033°33'813.1
2017-Nov-19 17:54S 28°43' E 033°39'512.8
2017-Nov-19 17:30S 28°39' E 033°43'1612.6
2017-Nov-19 16:16S 28°27' E 033°54'312.9
2017-Nov-19 16:00S 28°26' E 033°58'812.6
2017-Nov-19 15:22S 28°22' E 034°05'512.6
2017-Nov-19 15:00S 28°18' E 034°09'612.7
2017-Nov-19 14:30S 28°14' E 034°14'612.6
2017-Nov-19 14:00S 28°09' E 034°19'712.7
2017-Nov-19 13:29S 28°05' E 034°25'  
Track history (hours):
 
Tides and Currents Weather Stations Pressure Air Temp Water Temp Dewpoint Dewpoint Depression Visibility Wind Speed Wind Dir Waves Ship Positions

Azeri Gas

Last reported at 2017-Nov-24 16:50 UTC. Time now 2017-Dec-11 04:17 UTC.
Position S 33°49' E 018°19'.
Warning: this ship's position is 16 days out of date.

Length 119 m; draft 5.6 m.

Type: Tanker. MMSI: 248454000.

Date/timePositionNaut miles runAvg speedWind from/ knotsBaromVisibWave heightAir tempDewpointWater temp
2017-Nov-24 16:50S 33°49' E 018°19'412.1
2017-Nov-24 16:30S 33°51' E 018°23'4 7.7
2017-Nov-24 16:00S 33°54' E 018°26'1 0.3
2017-Nov-24 14:16S 33°55' E 018°26'0 0.0
2017-Nov-24 02:28S 33°55' E 018°26'0 0.0
2017-Nov-24 01:58S 33°55' E 018°26'0 0.0
2017-Nov-23 14:49S 33°55' E 018°26'1 1.7
2017-Nov-23 14:30S 33°54' E 018°26'2 3.8
2017-Nov-23 14:01S 33°52' E 018°25'0 0.9
2017-Nov-23 13:30S 33°53' E 018°25'1 2.7
2017-Nov-23 13:00S 33°52' E 018°23'3 5.2
2017-Nov-23 12:30S 33°52' E 018°20'4 8.6
2017-Nov-23 12:00S 33°52' E 018°15'  
2017-Nov-20 00:30S 29°46' E 032°26'1014.6
2017-Nov-19 23:49S 29°39' E 032°34'514.3
2017-Nov-19 23:27S 29°36' E 032°38'914.3
2017-Nov-19 22:49S 29°29' E 032°46'414.0
2017-Nov-19 22:30S 29°26' E 032°49'713.9
2017-Nov-19 22:00S 29°22' E 032°55'713.8
2017-Nov-19 21:30S 29°17' E 033°01'713.5
2017-Nov-19 20:57S 29°12' E 033°07'613.3
2017-Nov-19 20:30S 29°07' E 033°12'713.1
2017-Nov-19 20:00S 29°03' E 033°17'1813.1
2017-Nov-19 18:37S 28°50' E 033°32'113.2
2017-Nov-19 18:30S 28°49' E 033°33'813.1
2017-Nov-19 17:54S 28°43' E 033°39'512.8
2017-Nov-19 17:30S 28°39' E 033°43'1612.6
2017-Nov-19 16:16S 28°27' E 033°54'312.9
2017-Nov-19 16:00S 28°26' E 033°58'812.6
2017-Nov-19 15:22S 28°22' E 034°05'512.6
2017-Nov-19 15:00S 28°18' E 034°09'612.7
2017-Nov-19 14:30S 28°14' E 034°14'612.6
2017-Nov-19 14:00S 28°09' E 034°19'712.7
2017-Nov-19 13:29S 28°05' E 034°25'  

Dump ship's entire track history